Latest Weather Observations for Oakey

IDQ60901

Issued at 8:41 am EST Wednesday 31 August 2016 (issued every 10 minutes, with the page automatically refreshed every 10 minutes)

About weather observations | Map of Brisbane area stations | Latest observations for Brisbane area | Other Formats
Station Details ID: 041359 Name: OAKEY AERO Lat: -27.40 Lon: 151.74 Height: 405.69 m
Data from the previous 72 hours. | See also: Recent months at Oakey
Date/Time
EST
Temp
°C
App
Temp
°C
Dew
Point
°C
Rel
Hum
%
Delta-T
°C
Wind Press
QNH
hPa
Press
MSL
hPa
Rain since
9am
mm
Dir  Spd
km/h
Gust
km/h
Spd
kts
Gust
kts
31/08:30am 15.7 14.1 11.5 76 2.3 NE 11 17 6 9 1027.9 1027.9 0.0
31/08:00am 13.7 12.6 11.8 88 1.0 SE 9 11 5 6 1027.8 1027.8 0.0
31/07:30am 12.0 11.4 11.7 98 0.2 SE 6 7 3 4 1027.7 1027.7 0.0
31/07:00am 9.7 8.3 9.6 99 0.1 E 7 9 4 5 1026.8 1026.8 0.0
31/06:30am 6.7 4.5 6.0 95 0.3 ESE 7 9 4 5 1026.7 1026.6 0.0
31/06:00am 7.8 5.5 7.4 97 0.2 SE 9 13 5 7 1026.4 1026.3 0.0
31/05:30am 7.6 5.2 7.0 96 0.3 ESE 9 9 5 5 1026.1 1026.0 0.0
31/05:00am 8.2 6.0 7.8 97 0.2 E 9 11 5 6 1025.3 1025.3 0.0
31/04:45am 8.6 6.4 8.0 96 0.3 ESE 9 11 5 6 1025.1 1025.1 0.0
31/04:31am 7.7 5.8 6.6 93 0.5 E 6 7 3 4 1025.3 1025.3 0.0
31/04:30am 7.8 5.9 6.7 93 0.5 E 6 7 3 4 1025.3 1025.3 0.0
31/04:00am 9.1 7.4 8.3 95 0.4 ENE 7 9 4 5 1025.0 1025.0 0.0
31/03:30am 9.2 7.6 8.1 93 0.5 ENE 6 9 3 5 1025.0 1025.0 0.0
31/03:00am 9.9 7.2 8.8 93 0.5 E 13 15 7 8 1025.0 1025.0 0.0
31/02:30am 9.8 7.0 8.7 93 0.6 ENE 13 17 7 9 1025.0 1025.0 0.0
31/02:00am 9.8 8.2 8.6 92 0.6 ENE 7 11 4 6 1025.7 1025.7 0.0
31/01:30am 9.5 6.9 7.8 89 0.8 ENE 11 15 6 8 1026.0 1025.9 0.0
31/01:00am 10.8 8.6 9.2 90 0.8 ENE 11 13 6 7 1026.6 1026.5 0.0
31/12:30am 10.6 8.3 9.0 90 0.8 ENE 11 13 6 7 1026.6 1026.5 0.0
31/12:00am 10.9 8.2 9.0 88 1.0 ENE 13 15 7 8 1026.6 1026.5 0.0
 
Date/Time
EST
Temp
°C
App
Temp
°C
Dew
Point
°C
Rel
Hum
%
Delta-T
°C
Wind Press
QNH
hPa
Press
MSL
hPa
Rain since
9am
mm
Dir  Spd
km/h
Gust
km/h
Spd
kts
Gust
kts
30/11:30pm 11.6 8.6 9.2 85 1.2 ENE 15 17 8 9 1026.6 1026.5 0.0
30/11:00pm 12.7 9.5 9.9 83 1.5 ENE 17 24 9 13 1026.7 1026.6 0.0
30/10:30pm 12.0 9.0 9.4 84 1.3 E 15 17 8 9 1027.0 1027.0 0.0
30/10:00pm 12.4 9.4 9.2 81 1.6 ENE 15 19 8 10 1027.0 1027.0 0.0
30/09:30pm 12.8 10.2 9.3 79 1.8 ENE 13 17 7 9 1027.1 1027.1 0.0
30/09:00pm 13.9 9.9 9.1 73 2.5 ENE 20 24 11 13 1026.9 1026.9 0.0
30/08:30pm 14.1 10.4 9.3 73 2.5 ENE 19 20 10 11 1026.9 1026.9 0.0
30/08:00pm 14.3 10.5 8.9 70 2.8 ENE 19 26 10 14 1027.0 1027.0 0.0
30/07:30pm 14.8 11.1 9.6 71 2.7 ENE 19 20 10 11 1026.5 1026.4 0.0
30/07:00pm 15.5 11.8 9.6 68 3.1 ENE 19 24 10 13 1026.2 1026.1 0.0
30/06:30pm 16.1 12.9 9.8 66 3.4 ENE 17 20 9 11 1026.0 1025.9 0.0
30/06:00pm 17.2 13.5 9.6 61 4.0 ENE 19 22 10 12 1025.5 1025.5 0.0
30/05:30pm 18.1 13.8 9.2 56 4.7 ENE 22 30 12 16 1025.2 1025.2 0.0
30/05:00pm 19.4 13.9 9.3 52 5.4 ENE 28 33 15 18 1025.2 1025.2 0.0
30/04:30pm 20.5 15.7 8.8 47 6.3 ENE 24 33 13 18 1025.0 1025.0 0.0
30/04:00pm 20.7 15.5 9.0 47 6.3 ENE 26 32 14 17 1024.8 1024.8 0.0
30/03:30pm 21.2 16.2 9.4 47 6.4 ENE 26 33 14 18 1025.1 1025.1 0.0
30/03:00pm 21.3 15.4 9.2 46 6.5 ENE 30 41 16 22 1025.1 1025.1 0.0
30/02:30pm 21.7 16.4 9.9 47 6.5 ENE 28 37 15 20 1025.3 1025.3 0.0
30/02:00pm 21.6 17.0 9.5 46 6.6 ENE 24 33 13 18 1025.7 1025.7 0.0
30/01:30pm 21.3 16.0 8.6 44 6.8 E 26 39 14 21 1026.2 1026.1 0.0
30/01:00pm 21.2 16.2 9.4 47 6.4 ENE 26 35 14 19 1026.5 1026.4 0.0
30/12:30pm 21.3 16.4 9.9 48 6.3 ENE 26 35 14 19 1026.9 1026.9 0.0
30/12:00pm 20.5 15.9 9.7 50 5.9 NE 24 33 13 18 1027.4 1027.4 0.0
30/11:30am 20.2 14.7 9.2 49 5.9 NE 28 39 15 21 1027.7 1027.7 0.0
30/11:00am 19.7 15.0 9.3 51 5.6 E 24 35 13 19 1028.2 1028.2 0.0
30/10:30am 18.9 14.0 8.6 51 5.5 E 24 33 13 18 1028.6 1028.5 0.0
30/10:00am 18.7 13.3 9.5 55 4.9 E 28 35 15 19 1029.0 1029.0 0.0
30/09:30am 18.2 13.4 9.0 55 4.9 ENE 24 32 13 17 1029.2 1029.2 0.0
30/09:00am 17.1 12.2 9.8 62 3.9 ENE 26 33 14 18 1029.3 1029.3 0.0
30/08:30am 15.9 12.1 11.1 73 2.6 ENE 22 28 12 15 1028.9 1028.9 0.0
30/08:00am 15.5 13.6 11.7 78 2.1 ENE 13 20 7 11 1028.3 1028.3 0.0
30/07:30am 14.2 13.1 12.1 87 1.2 E 9 13 5 7 1028.3 1028.3 0.0
30/07:00am 11.9 10.2 11.1 95 0.4 ESE 11 13 6 7 1027.7 1027.7 0.0
30/06:30am 11.2 8.9 10.4 95 0.4 E 13 15 7 8 1027.4 1027.4 0.0
30/06:00am 10.8 8.5 10.5 98 0.2 E 13 17 7 9 1026.9 1026.9 0.0
30/05:30am 9.7 6.6 8.9 95 0.4 E 15 15 8 8 1026.4 1026.3 0.0
30/05:00am 9.7 6.6 8.8 94 0.4 E 15 17 8 9 1025.6 1025.6 0.0
30/04:30am 10.1 7.0 9.0 93 0.6 E 15 17 8 9 1025.3 1025.3 0.0
30/04:00am 10.6 7.3 9.7 94 0.5 E 17 20 9 11 1025.0 1025.0 0.0
30/03:30am 10.7 7.4 9.6 93 0.6 E 17 19 9 10 1024.9 1024.9 0.0
30/03:00am 11.2 7.6 9.8 91 0.7 E 19 22 10 12 1024.7 1024.7 0.0
30/02:30am 11.3 8.0 9.7 90 0.8 ENE 17 19 9 10 1025.1 1025.1 0.0
30/02:00am 11.6 8.5 10.2 91 0.7 ENE 17 19 9 10 1025.2 1025.2 0.0
30/01:30am 11.3 8.9 10.0 92 0.7 ENE 13 17 7 9 1025.3 1025.3 0.0
30/01:00am 11.6 8.8 10.0 90 0.8 ENE 15 17 8 9 1025.5 1025.5 0.0
30/12:30am 11.5 9.0 9.8 89 0.9 E 13 17 7 9 1025.7 1025.7 0.0
30/12:00am 12.3 9.2 10.4 88 1.0 E 17 20 9 11 1025.8 1025.8 0.0
 
Date/Time
EST
Temp
°C
App
Temp
°C
Dew
Point
°C
Rel
Hum
%
Delta-T
°C
Wind Press
QNH
hPa
Press
MSL
hPa
Rain since
9am
mm
Dir  Spd
km/h
Gust
km/h
Spd
kts
Gust
kts
29/11:30pm 12.3 9.2 10.4 88 1.0 E 17 20 9 11 1026.0 1025.9 0.0
29/11:00pm 12.6 9.4 10.0 84 1.4 E 17 22 9 12 1026.4 1026.3 0.0
29/10:30pm 13.6 10.0 10.6 82 1.6 ENE 20 26 11 14 1026.4 1026.3 0.0
29/10:00pm 13.5 10.0 10.1 80 1.8 ENE 19 22 10 12 1026.5 1026.4 0.0
29/09:30pm 13.9 10.4 10.1 78 2.0 ENE 19 24 10 13 1026.4 1026.3 0.0
29/09:00pm 14.7 11.0 10.1 74 2.4 ENE 20 26 11 14 1026.1 1026.0 0.0
29/08:30pm 15.2 11.1 10.2 72 2.7 ENE 22 30 12 16 1026.1 1026.0 0.0
29/08:00pm 15.8 11.3 9.9 68 3.1 ENE 24 30 13 16 1025.6 1025.6 0.0
29/07:30pm 16.3 12.1 8.3 59 4.1 NE 20 26 11 14 1025.2 1025.2 0.0
29/07:00pm 16.9 12.4 7.0 52 5.0 E 20 28 11 15 1024.8 1024.8 0.0
29/06:30pm 16.6 12.3 5.3 47 5.5 E 17 20 9 11 1024.5 1024.4 0.0
29/06:00pm 17.7 12.8 5.0 43 6.2 E 20 24 11 13 1024.2 1024.1 0.0
29/05:30pm 18.9 14.1 5.4 41 6.7 ESE 20 24 11 13 1024.2 1024.1 0.0
29/05:00pm 20.9 15.3 5.3 36 7.8 ESE 24 30 13 16 1023.6 1023.5 0.0
29/04:30pm 22.2 16.9 6.8 37 8.0 E 24 28 13 15 1023.5 1023.4 0.0
29/04:00pm 23.0 19.6 4.0 29 9.4 NE 11 17 6 9 1023.4 1023.3 0.0
29/03:30pm 23.1 19.3 4.1 29 9.5 E 13 17 7 9 1023.1 1023.1 0.0
29/03:00pm 23.5 20.0 3.4 27 9.9 NE 11 15 6 8 1023.2 1023.2 0.0
29/02:30pm 23.4 19.5 3.4 27 9.9 N 13 19 7 10 1023.5 1023.4 0.0
29/02:00pm 23.2 20.6 6.1 33 8.8 NW 9 11 5 6 1023.6 1023.5 0.0
29/01:30pm 22.4 19.4 5.8 34 8.5 WSW 11 17 6 9 1023.7 1023.6 0.0
29/01:00pm 21.8 18.2 4.8 33 8.5 ESE 13 19 7 10 1024.1 1024.0 0.0
29/12:30pm 21.3 18.2 3.5 31 8.7 ESE 9 17 5 9 1024.4 1024.3 0.0
29/12:00pm 20.7 18.5 5.5 37 7.6 S 6 17 3 9 1025.1 1025.1 0.0
29/11:30am 20.2 18.0 5.4 38 7.4 NW 6 11 3 6 1025.4 1025.4 0.0
29/11:00am 19.0 18.0 7.4 47 6.0 ESE 2 7 1 4 1026.0 1025.9 0.0
29/10:30am 18.4 17.0 8.7 53 5.1 SW 6 11 3 6 1026.6 1026.5 0.0
29/10:00am 17.7 16.0 8.3 54 4.9 SW 7 13 4 7 1027.0 1027.0 0.0
29/09:30am 16.7 15.1 8.1 57 4.5 W 6 7 3 4 1026.9 1026.9 0.0
29/09:00am 15.6 15.1 7.9 60 3.9 CALM 0 0 0 0 1026.8 1026.8 0.0
29/08:30am 13.2 12.5 8.7 74 2.3 NNE 2 6 1 3 1027.0 1027.0 0.0
29/08:00am 10.8 9.0 7.9 82 1.4 ENE 7 7 4 4 1026.7 1026.6 0.0
29/07:30am 8.3 7.5 6.4 88 0.9 CALM 0 0 0 0 1026.2 1026.1 0.0
29/07:00am 4.9 3.6 4.3 96 0.3 CALM 0 0 0 0 1025.5 1025.5 0.0
29/06:30am 2.9 0.5 2.2 95 0.3 NE 4 7 2 4 1025.0 1025.0 0.0
29/06:00am 2.8 0.0 2.1 95 0.3 E 6 7 3 4 1024.9 1024.9 0.0
29/05:30am 2.9 1.3 2.2 95 0.3 CALM 0 9 0 5 1024.4 1024.3 0.0
29/05:00am 3.0 1.3 2.0 93 0.4 CALM 0 0 0 0 1023.8 1023.7 0.0
29/04:30am 3.1 1.4 2.1 93 0.4 CALM 0 0 0 0 1023.4 1023.3 0.0
29/04:00am 3.0 0.0 1.8 92 0.5 ESE 7 9 4 5 1023.4 1023.3 0.0
29/03:30am 3.4 0.1 2.5 94 0.4 ESE 9 9 5 5 1023.5 1023.4 0.0
29/03:00am 3.7 1.0 2.5 92 0.5 ENE 6 7 3 4 1023.8 1023.7 0.0
29/02:30am 3.9 1.0 2.6 91 0.5 SE 7 9 4 5 1023.8 1023.7 0.0
29/02:00am 4.6 2.0 3.4 92 0.5 ENE 6 7 3 4 1024.0 1023.9 0.0
29/01:30am 4.2 1.5 2.4 88 0.7 SSE 6 7 3 4 1024.0 1023.9 0.0
29/01:00am 5.7 3.2 3.9 88 0.8 ENE 6 7 3 4 1024.3 1024.2 0.0
29/12:30am 5.3 2.2 3.5 88 0.8 ENE 9 13 5 7 1024.4 1024.3 0.0
29/12:00am 5.8 2.1 4.3 90 0.7 E 13 17 7 9 1024.1 1024.0 0.0
 
Date/Time
EST
Temp
°C
App
Temp
°C
Dew
Point
°C
Rel
Hum
%
Delta-T
°C
Wind Press
QNH
hPa
Press
MSL
hPa
Rain since
9am
mm
Dir  Spd
km/h
Gust
km/h
Spd
kts
Gust
kts
28/11:30pm 6.0 3.9 3.7 85 1.0 S 4 7 2 4 1024.0 1023.9 0.0
28/11:00pm 6.7 3.7 4.2 84 1.1 SSW 9 11 5 6 1024.1 1024.0 0.0
28/10:30pm 6.5 3.4 3.5 81 1.3 E 9 11 5 6 1024.1 1024.0 0.0
28/10:00pm 6.7 5.5 4.4 85 1.0 CALM 0 0 0 0 1024.0 1023.9 0.0
28/09:30pm 7.4 6.2 4.4 81 1.3 CALM 0 2 0 1 1023.9 1023.8 0.0
28/09:00pm 7.2 3.7 3.6 78 1.6 NE 11 13 6 7 1023.7 1023.6 0.0
28/08:30pm 8.2 5.2 4.0 75 1.9 NE 9 11 5 6 1023.6 1023.5 0.0
28/08:00pm 8.2 5.6 4.0 75 1.9 ENE 7 9 4 5 1023.4 1023.3 0.0
28/07:30pm 10.7 7.7 4.0 63 3.0 S 9 11 5 6 1023.0 1023.0 0.0
28/07:00pm 12.7 9.9 5.1 60 3.6 SSE 9 11 5 6 1022.8 1022.8 0.0
28/06:30pm 13.6 10.8 3.4 50 4.7 SW 7 9 4 5 1022.5 1022.4 0.0
28/06:00pm 16.1 13.2 2.5 40 6.2 WNW 7 7 4 4 1022.3 1022.2 0.0
28/05:30pm 18.1 14.8 2.4 35 7.3 WNW 9 9 5 5 1022.1 1022.0 0.0
28/05:00pm 19.5 16.7 3.2 34 7.8 WNW 7 11 4 6 1022.0 1021.9 0.0
28/04:30pm 20.1 16.7 2.0 30 8.5 W 9 11 5 6 1021.6 1021.5 0.0
28/04:00pm 20.2 17.4 3.0 32 8.2 WNW 7 13 4 7 1021.5 1021.4 0.0
28/03:30pm 20.1 17.3 3.3 33 8.1 SSW 7 15 4 8 1021.5 1021.4 0.0
28/03:00pm 19.9 15.6 3.2 33 8.0 WSW 15 19 8 10 1021.7 1021.6 0.0
28/02:30pm 19.9 17.4 3.6 34 7.9 NW 6 9 3 5 1021.9 1021.8 0.0
28/02:00pm 19.5 16.2 2.4 32 8.0 WSW 9 15 5 8 1022.2 1022.1 0.0
28/01:30pm 19.2 16.1 1.2 30 8.3 W 7 17 4 9 1022.5 1022.4 0.0
28/01:00pm 19.0 16.5 4.0 37 7.2 W 6 9 3 5 1022.9 1022.9 0.0
28/12:30pm 18.0 15.0 4.2 40 6.7 SW 9 15 5 8 1023.4 1023.3 0.0
28/12:00pm 17.8 15.5 5.7 45 6.0 W 7 11 4 6 1024.0 1023.9 0.0
28/11:30am 17.3 14.3 3.9 41 6.4 SSW 9 15 5 8 1024.4 1024.3 0.0
28/11:00am 16.8 14.7 6.6 51 5.1 SSW 7 13 4 7 1024.8 1024.8 0.0
28/10:30am 15.1 13.6 6.9 58 4.1 SSW 4 9 2 5 1025.1 1025.1 0.0
28/10:00am 13.7 11.7 6.3 61 3.6 NE 6 9 3 5 1025.2 1025.2 0.0
28/09:30am 12.0 9.9 5.9 66 2.9 E 6 9 3 5 1025.5 1025.5 0.0
28/09:00am 10.6 8.9 6.0 73 2.2 NNE 4 9 2 5 1025.6 1025.6 0.0

Latest Capital City Observations: Canberra | Sydney | Melbourne | Brisbane | Adelaide | Perth | Hobart | Darwin

Other Formats:

Comma delimited format used in spreadsheet applications
http://www.bom.gov.au/fwo/IDQ60901/IDQ60901.94552.axf

JavaScript Object Notation format (JSON) in row-major order
http://www.bom.gov.au/fwo/IDQ60901/IDQ60901.94552.json